createdAt,value
2019-04-25T00:00:36.843Z,45.30
2019-04-25T00:03:07.384Z,44.60
2019-04-25T00:05:38.675Z,45.90
2019-04-25T00:08:09.581Z,45.60
2019-04-25T00:10:39.894Z,43.70
2019-04-25T00:13:11.738Z,43.10
2019-04-25T00:15:44.467Z,42.70
2019-04-25T00:18:14.254Z,42.80
2019-04-25T00:20:49.097Z,45.10
2019-04-25T00:23:19.387Z,45.00
2019-04-25T00:25:58.099Z,44.50
2019-04-25T00:28:28.295Z,42.80
2019-04-25T00:30:58.557Z,42.60
2019-04-25T00:33:28.762Z,42.70
2019-04-25T00:35:58.957Z,44.10
2019-04-25T00:38:29.294Z,44.80
2019-04-25T00:40:59.496Z,43.80
2019-04-25T00:43:31.357Z,43.30
2019-04-25T00:46:01.786Z,43.40
2019-04-25T00:48:32.017Z,47.20
2019-04-25T00:51:02.199Z,44.20
2019-04-25T00:53:32.502Z,44.10
2019-04-25T00:56:02.846Z,44.70
2019-04-25T00:58:53.190Z,43.50
2019-04-25T01:01:46.867Z,45.10
2019-04-25T01:04:19.514Z,44.30
2019-04-25T01:06:49.757Z,44.70
2019-04-25T01:09:22.245Z,48.80
2019-04-25T01:11:53.182Z,46.30
2019-04-25T01:14:23.513Z,45.30
2019-04-25T01:16:53.935Z,45.90
2019-04-25T01:19:25.155Z,46.40
2019-04-25T01:21:56.062Z,44.20
2019-04-25T01:24:26.712Z,44.20
2019-04-25T01:26:56.871Z,44.30
2019-04-25T01:29:27.170Z,43.30
2019-04-25T01:31:57.326Z,44.20
2019-04-25T01:34:47.040Z,44.00
2019-04-25T01:37:28.358Z,45.10
2019-04-25T01:40:20.821Z,44.20
2019-04-25T01:43:10.545Z,43.90
2019-04-25T01:45:41.074Z,43.80
2019-04-25T01:48:11.364Z,43.80
2019-04-25T01:50:43.636Z,43.60
2019-04-25T01:53:14.592Z,43.60
2019-04-25T01:55:53.292Z,44.20
2019-04-25T01:58:16.862Z,43.50
2019-04-25T02:00:48.164Z,43.70
2019-04-25T02:03:18.426Z,47.20
2019-04-25T02:05:48.730Z,46.50
2019-04-25T02:08:19.227Z,45.00
2019-04-25T02:10:57.003Z,45.40
2019-04-25T02:13:27.180Z,46.60
2019-04-25T02:15:57.704Z,45.60
2019-04-25T02:18:28.019Z,47.60
2019-04-25T02:21:00.301Z,49.40
2019-04-25T02:23:30.416Z,46.70
2019-04-25T02:26:12.392Z,48.20
2019-04-25T02:28:33.835Z,47.10
2019-04-25T02:31:08.607Z,48.10
2019-04-25T02:33:36.239Z,46.20
2019-04-25T02:36:08.529Z,45.80
2019-04-25T02:38:38.498Z,45.30
2019-04-25T02:41:09.144Z,47.50
2019-04-25T02:43:39.764Z,46.10
2019-04-25T02:46:42.033Z,45.90
2019-04-25T02:49:40.723Z,45.10
2019-04-25T02:52:24.877Z,44.20
2019-04-25T02:54:56.910Z,44.10
2019-04-25T02:57:27.287Z,45.30
2019-04-25T02:59:58.526Z,45.80
2019-04-25T03:02:28.850Z,44.70
2019-04-25T03:04:59.697Z,46.80
2019-04-25T03:07:31.114Z,45.90
2019-04-25T03:10:02.020Z,45.70
2019-04-25T03:12:35.904Z,46.00
2019-04-25T03:15:07.213Z,45.80
2019-04-25T03:17:36.623Z,45.70
2019-04-25T03:20:24.811Z,47.60
2019-04-25T03:22:55.065Z,46.20
2019-04-25T03:25:25.247Z,49.10
2019-04-25T03:27:55.512Z,48.90
2019-04-25T03:30:25.795Z,49.20
2019-04-25T03:32:56.339Z,48.30
2019-04-25T03:35:26.655Z,50.00
2019-04-25T03:37:56.990Z,48.70
2019-04-25T03:40:27.226Z,47.70
2019-04-25T03:42:57.478Z,47.70
2019-04-25T03:45:27.801Z,46.70
2019-04-25T03:47:58.069Z,46.70
2019-04-25T03:50:28.362Z,46.70
2019-04-25T03:52:58.711Z,46.90
2019-04-25T03:55:29.088Z,46.60
2019-04-25T03:57:59.413Z,47.50
2019-04-25T04:00:29.741Z,46.20
2019-04-25T04:02:59.937Z,48.90
2019-04-25T04:05:30.351Z,46.60
2019-04-25T04:08:00.602Z,46.20
2019-04-25T04:10:30.919Z,48.90
2019-04-25T04:13:01.074Z,46.90
2019-04-25T04:15:33.426Z,47.50
2019-04-25T04:18:08.610Z,48.60
2019-04-25T04:20:57.993Z,49.20
2019-04-25T04:23:34.605Z,52.10
2019-04-25T04:26:05.508Z,47.80
2019-04-25T04:28:36.440Z,46.20
2019-04-25T04:31:06.667Z,48.80
2019-04-25T04:33:36.985Z,50.00
2019-04-25T04:36:07.430Z,51.30
2019-04-25T04:38:37.794Z,48.40
2019-04-25T04:41:08.103Z,47.90
2019-04-25T04:43:38.274Z,51.40
2019-04-25T04:46:08.659Z,48.50
2019-04-25T04:48:38.925Z,48.10
2019-04-25T04:51:09.208Z,49.00
2019-04-25T04:53:39.356Z,53.10
2019-04-25T04:56:09.733Z,50.30
2019-04-25T04:58:39.973Z,48.50
2019-04-25T05:01:11.034Z,48.20
2019-04-25T05:04:04.001Z,47.40
2019-04-25T05:07:00.583Z,47.10
2019-04-25T05:09:30.744Z,47.70
2019-04-25T05:12:01.052Z,47.00
2019-04-25T05:14:31.198Z,47.70
2019-04-25T05:17:01.536Z,53.00
2019-04-25T05:19:33.463Z,49.00
2019-04-25T05:22:03.883Z,48.50
2019-04-25T05:24:34.192Z,50.80
2019-04-25T05:27:04.560Z,50.70
2019-04-25T05:29:34.810Z,47.70
2019-04-25T05:32:05.136Z,47.60
2019-04-25T05:34:35.412Z,47.50
2019-04-25T05:37:05.642Z,47.60
2019-04-25T05:39:36.108Z,46.70
2019-04-25T05:42:25.711Z,46.70
2019-04-25T05:44:59.058Z,46.60
2019-04-25T05:47:29.252Z,45.70
2019-04-25T05:49:59.532Z,45.90
2019-04-25T05:52:29.932Z,48.20
2019-04-25T05:55:00.220Z,47.70
2019-04-25T05:57:30.567Z,48.10
2019-04-25T06:00:00.872Z,46.80
2019-04-25T06:02:31.150Z,48.00
2019-04-25T06:05:01.381Z,46.60
2019-04-25T06:07:33.221Z,49.30
2019-04-25T06:10:21.690Z,50.90
2019-04-25T06:13:07.760Z,51.70
2019-04-25T06:15:38.004Z,48.10
2019-04-25T06:18:39.264Z,51.80
2019-04-25T06:21:10.794Z,55.90
2019-04-25T06:24:18.306Z,55.50
2019-04-25T06:27:17.688Z,55.40
2019-04-25T06:29:58.094Z,51.30
2019-04-25T06:32:23.182Z,52.70
2019-04-25T06:34:54.294Z,50.90
2019-04-25T06:37:25.808Z,49.00
2019-04-25T06:39:56.126Z,52.10
2019-04-25T06:42:27.021Z,52.10
2019-04-25T06:45:16.346Z,48.10
2019-04-25T06:48:18.516Z,52.30
2019-04-25T06:50:48.688Z,49.00
2019-04-25T06:53:19.048Z,47.30
2019-04-25T06:55:49.370Z,53.30
2019-04-25T06:58:19.736Z,55.10
2019-04-25T07:00:58.690Z,52.20
2019-04-25T07:03:22.800Z,53.60
2019-04-25T07:05:53.838Z,55.80
2019-04-25T07:08:25.766Z,55.30
2019-04-25T07:10:56.104Z,55.00
2019-04-25T07:13:26.993Z,53.80
2019-04-25T07:15:57.460Z,51.50
2019-04-25T07:18:30.586Z,50.10
2019-04-25T07:20:59.685Z,49.30
2019-04-25T07:23:29.970Z,51.70
2019-04-25T07:26:09.454Z,50.50
2019-04-25T07:28:47.823Z,50.20
2019-04-25T07:31:29.176Z,52.30
2019-04-25T07:34:03.311Z,51.00
2019-04-25T07:36:38.469Z,50.80
2019-04-25T07:39:10.635Z,50.30
2019-04-25T07:41:41.206Z,50.30
2019-04-25T07:44:11.391Z,49.10
2019-04-25T07:46:43.197Z,49.10
2019-04-25T07:49:13.653Z,48.40
2019-04-25T07:51:45.397Z,48.40
2019-04-25T07:54:15.996Z,48.10
2019-04-25T07:56:46.321Z,47.90
2019-04-25T07:59:16.672Z,47.40
2019-04-25T08:01:46.977Z,47.40
2019-04-25T08:04:17.213Z,47.20
2019-04-25T08:06:47.418Z,47.00
2019-04-25T08:09:17.722Z,46.70
2019-04-25T08:11:48.007Z,46.20
2019-04-25T08:14:28.453Z,46.00
2019-04-25T08:17:01.236Z,46.40
2019-04-25T08:19:33.209Z,45.90
2019-04-25T08:22:03.915Z,45.90
2019-04-25T08:24:37.254Z,45.50
2019-04-25T08:27:07.653Z,45.10
2019-04-25T08:29:39.593Z,46.10
2019-04-25T08:32:10.002Z,44.90
2019-04-25T08:34:40.187Z,43.80
2019-04-25T08:37:17.939Z,42.90
2019-04-25T08:39:44.116Z,43.00
2019-04-25T08:42:14.778Z,42.70
2019-04-25T08:44:45.164Z,42.20
2019-04-25T08:47:15.564Z,41.40
2019-04-25T08:49:50.244Z,41.60
2019-04-25T08:52:20.776Z,42.30
2019-04-25T08:55:10.092Z,42.70
2019-04-25T08:58:03.760Z,41.10
2019-04-25T09:01:00.690Z,41.80
2019-04-25T09:03:30.117Z,40.90
2019-04-25T09:06:00.422Z,41.10
2019-04-25T09:08:30.720Z,42.20
2019-04-25T09:11:00.887Z,40.20
2019-04-25T09:13:31.164Z,39.20
2019-04-25T09:16:01.477Z,39.20
2019-04-25T09:18:31.727Z,37.80
2019-04-25T09:21:03.878Z,38.50
2019-04-25T09:23:36.239Z,37.50
2019-04-25T09:26:05.920Z,36.40
2019-04-25T09:28:38.827Z,37.80
2019-04-25T09:31:08.402Z,38.70
2019-04-25T09:33:39.156Z,37.90
2019-04-25T09:36:09.675Z,36.30
2019-04-25T09:38:40.961Z,36.70
2019-04-25T09:41:11.415Z,37.40
2019-04-25T09:43:41.773Z,37.80
2019-04-25T09:46:24.286Z,38.10
2019-04-25T09:49:09.070Z,36.90
2019-04-25T09:51:57.172Z,36.90
2019-04-25T09:54:36.311Z,34.90
2019-04-25T09:57:24.623Z,36.00
2019-04-25T09:59:54.939Z,38.10
2019-04-25T10:02:25.948Z,37.50
2019-04-25T10:04:56.295Z,37.10
2019-04-25T10:07:26.614Z,37.10
2019-04-25T10:09:56.927Z,36.90
2019-04-25T10:12:27.115Z,38.40
2019-04-25T10:15:14.463Z,36.80
2019-04-25T10:17:45.287Z,34.60
2019-04-25T10:20:18.331Z,38.50
2019-04-25T10:22:48.661Z,35.70
2019-04-25T10:25:19.534Z,33.50
2019-04-25T10:27:49.902Z,35.60
2019-04-25T10:30:23.541Z,37.80
2019-04-25T10:32:54.380Z,36.70
2019-04-25T10:35:23.982Z,37.60
2019-04-25T10:37:55.030Z,35.70
2019-04-25T10:40:25.847Z,38.30
2019-04-25T10:42:56.165Z,38.40
2019-04-25T10:45:26.459Z,37.80
2019-04-25T10:47:56.847Z,36.50
2019-04-25T10:50:27.191Z,38.60
2019-04-25T10:52:57.473Z,38.00
2019-04-25T10:55:27.699Z,36.20
2019-04-25T10:57:58.131Z,36.10
2019-04-25T11:00:36.077Z,34.00
2019-04-25T11:03:28.438Z,37.80
2019-04-25T11:05:58.777Z,34.00
2019-04-25T11:08:29.047Z,34.00
2019-04-25T11:10:59.517Z,31.50
2019-04-25T11:13:30.017Z,31.50
2019-04-25T11:16:00.512Z,34.60
2019-04-25T11:18:30.798Z,33.90
2019-04-25T11:21:01.007Z,35.80
2019-04-25T11:23:31.267Z,36.60
2019-04-25T11:26:01.492Z,36.20
2019-04-25T11:28:33.369Z,36.50
2019-04-25T11:31:05.469Z,34.50
2019-04-25T11:33:36.569Z,31.10
2019-04-25T11:36:06.703Z,34.90
2019-04-25T11:39:05.279Z,34.20
2019-04-25T11:41:35.706Z,32.70
2019-04-25T11:44:06.222Z,31.40
2019-04-25T11:46:39.212Z,35.40
2019-04-25T11:49:08.655Z,32.30
2019-04-25T11:51:38.851Z,32.20
2019-04-25T11:54:09.136Z,34.10
2019-04-25T11:56:39.512Z,30.60
2019-04-25T11:59:09.729Z,33.20
2019-04-25T12:01:39.990Z,33.70
2019-04-25T12:04:10.310Z,29.10
2019-04-25T12:06:40.746Z,31.10
2019-04-25T12:09:11.267Z,31.80
2019-04-25T12:11:41.506Z,30.50
2019-04-25T12:14:11.778Z,29.40
2019-04-25T12:16:46.142Z,28.10
2019-04-25T12:19:14.037Z,28.50
2019-04-25T12:21:44.707Z,30.50
2019-04-25T12:24:15.099Z,31.10
2019-04-25T12:26:47.396Z,30.40
2019-04-25T12:29:17.452Z,26.00
2019-04-25T12:31:47.736Z,28.20
2019-04-25T12:34:18.042Z,26.40
2019-04-25T12:36:48.440Z,28.90
2019-04-25T12:39:18.752Z,28.20
2019-04-25T12:41:50.405Z,27.90
2019-04-25T12:44:36.428Z,29.20
2019-04-25T12:47:11.328Z,28.70
2019-04-25T12:49:41.548Z,29.10
2019-04-25T12:52:11.886Z,29.60
2019-04-25T12:54:42.160Z,30.10
2019-04-25T12:57:14.706Z,30.00
2019-04-25T12:59:45.211Z,29.00
2019-04-25T13:02:15.914Z,28.00
2019-04-25T13:04:47.666Z,29.80
2019-04-25T13:07:17.988Z,29.00
2019-04-25T13:09:51.254Z,25.30
2019-04-25T13:12:20.493Z,28.50
2019-04-25T13:14:50.742Z,28.00
2019-04-25T13:17:21.399Z,27.50
2019-04-25T13:19:51.663Z,27.70
2019-04-25T13:22:22.019Z,25.40
2019-04-25T13:24:52.306Z,29.30
2019-04-25T13:27:34.867Z,27.80
2019-04-25T13:30:25.645Z,25.90
2019-04-25T13:33:09.159Z,29.10
2019-04-25T13:35:44.763Z,28.50
2019-04-25T13:38:15.021Z,25.50
2019-04-25T13:40:45.374Z,26.60
2019-04-25T13:43:15.644Z,24.90
2019-04-25T13:45:45.984Z,27.80
2019-04-25T13:48:16.245Z,26.40
2019-04-25T13:50:46.798Z,27.10
2019-04-25T13:53:16.992Z,28.70
2019-04-25T13:55:47.262Z,28.80
2019-04-25T13:58:17.585Z,25.00
2019-04-25T14:00:47.858Z,27.80
2019-04-25T14:03:18.138Z,27.60
2019-04-25T14:05:48.324Z,26.20
2019-04-25T14:08:18.608Z,27.00
2019-04-25T14:10:48.795Z,27.00
2019-04-25T14:13:19.113Z,27.20
2019-04-25T14:15:59.790Z,27.10
2019-04-25T14:18:40.974Z,25.40
2019-04-25T14:21:16.790Z,29.20
2019-04-25T14:23:47.058Z,26.70
2019-04-25T14:26:17.775Z,25.80
2019-04-25T14:28:48.026Z,28.70
2019-04-25T14:31:35.417Z,29.90
2019-04-25T14:33:52.257Z,28.20
2019-04-25T14:36:25.007Z,28.80
2019-04-25T14:38:54.533Z,29.70
2019-04-25T14:41:25.967Z,30.30
2019-04-25T14:43:56.260Z,29.80
2019-04-25T14:46:26.605Z,26.40
2019-04-25T14:48:57.030Z,28.60
2019-04-25T14:51:28.136Z,29.40
2019-04-25T14:54:00.113Z,28.40
2019-04-25T14:56:45.624Z,29.30
2019-04-25T14:59:16.093Z,29.10
2019-04-25T15:01:46.536Z,28.80
2019-04-25T15:04:16.781Z,29.40
2019-04-25T15:06:47.053Z,29.40
2019-04-25T15:09:17.404Z,29.70
2019-04-25T15:11:47.730Z,29.40
2019-04-25T15:14:18.032Z,29.90
2019-04-25T15:16:48.317Z,29.80
2019-04-25T15:19:18.646Z,30.50
2019-04-25T15:21:48.872Z,30.90
2019-04-25T15:24:19.246Z,29.10
2019-04-25T15:26:49.558Z,30.30
2019-04-25T15:29:19.957Z,30.30
2019-04-25T15:31:55.970Z,29.50
2019-04-25T15:34:25.830Z,30.90
2019-04-25T15:37:04.592Z,30.20
2019-04-25T15:39:52.507Z,30.20
2019-04-25T15:42:40.681Z,29.00
2019-04-25T15:45:38.615Z,29.80
2019-04-25T15:48:08.907Z,29.70
2019-04-25T15:50:39.758Z,29.90
2019-04-25T15:53:10.023Z,29.40
2019-04-25T15:55:40.782Z,27.60
2019-04-25T15:58:11.217Z,28.10
2019-04-25T16:00:41.592Z,29.00
2019-04-25T16:03:12.255Z,28.90
2019-04-25T16:05:42.561Z,29.00
2019-04-25T16:08:12.824Z,27.90
2019-04-25T16:10:42.999Z,28.70
2019-04-25T16:13:13.532Z,29.80
2019-04-25T16:15:43.844Z,29.60
2019-04-25T16:18:14.345Z,30.00
2019-04-25T16:20:44.566Z,30.00
2019-04-25T16:23:15.087Z,29.70
2019-04-25T16:25:45.431Z,29.90
2019-04-25T16:28:15.710Z,29.90
2019-04-25T16:30:45.999Z,29.70
2019-04-25T16:33:16.263Z,29.90
2019-04-25T16:35:46.617Z,28.60
2019-04-25T16:38:17.287Z,30.30
2019-04-25T16:40:47.525Z,30.50
2019-04-25T16:43:21.803Z,30.70
2019-04-25T16:45:52.161Z,30.10
2019-04-25T16:48:22.911Z,30.70
2019-04-25T16:50:53.165Z,30.70
2019-04-25T16:53:23.571Z,29.90
2019-04-25T16:55:53.957Z,30.50
2019-04-25T16:58:24.321Z,30.70
2019-04-25T17:01:07.916Z,31.00
2019-04-25T17:03:38.689Z,31.00
2019-04-25T17:06:09.369Z,31.10
2019-04-25T17:08:40.240Z,30.90
2019-04-25T17:11:12.159Z,30.90
2019-04-25T17:13:52.015Z,30.90
2019-04-25T17:16:50.328Z,31.30
2019-04-25T17:19:25.185Z,31.20
2019-04-25T17:21:55.423Z,31.20
2019-04-25T17:24:25.833Z,31.30
2019-04-25T17:26:56.029Z,31.30
2019-04-25T17:29:26.326Z,31.40
2019-04-25T17:32:24.571Z,31.00
2019-04-25T17:35:19.851Z,31.20
2019-04-25T17:38:06.311Z,30.70
2019-04-25T17:40:37.597Z,31.20
2019-04-25T17:43:11.213Z,31.40
2019-04-25T17:45:39.926Z,31.40
2019-04-25T17:48:10.312Z,31.50
2019-04-25T17:50:40.457Z,31.60
2019-04-25T17:53:10.738Z,31.50
2019-04-25T17:55:41.607Z,31.50
2019-04-25T17:58:11.826Z,31.50
2019-04-25T18:00:43.599Z,31.50
2019-04-25T18:03:14.246Z,31.50
2019-04-25T18:05:44.525Z,31.50
2019-04-25T18:08:14.955Z,31.60
2019-04-25T18:10:45.185Z,31.60
2019-04-25T18:13:15.384Z,31.70
2019-04-25T18:15:53.085Z,31.60
2019-04-25T18:18:43.519Z,31.70
2019-04-25T18:21:14.044Z,31.30
2019-04-25T18:24:08.763Z,31.80
2019-04-25T18:26:47.137Z,31.80
2019-04-25T18:29:17.698Z,32.00
2019-04-25T18:31:48.451Z,31.90
2019-04-25T18:34:28.518Z,32.10
2019-04-25T18:37:15.905Z,32.20
2019-04-25T18:39:52.734Z,32.40
2019-04-25T18:42:42.041Z,32.00
2019-04-25T18:45:15.102Z,32.00
2019-04-25T18:47:45.417Z,31.90
2019-04-25T18:50:17.853Z,31.70
2019-04-25T18:52:57.830Z,32.00
2019-04-25T18:55:47.854Z,31.80
2019-04-25T18:58:37.568Z,32.20
2019-04-25T19:01:33.277Z,32.60
2019-04-25T19:04:12.855Z,32.30
2019-04-25T19:06:53.481Z,33.40
2019-04-25T19:09:15.104Z,33.30
2019-04-25T19:11:45.286Z,33.90
2019-04-25T19:14:15.592Z,33.80
2019-04-25T19:16:45.897Z,33.60
2019-04-25T19:19:16.041Z,33.30
2019-04-25T19:21:46.461Z,33.10
2019-04-25T19:24:16.808Z,33.20
2019-04-25T19:26:47.914Z,33.10
2019-04-25T19:29:18.417Z,33.10
2019-04-25T19:31:48.722Z,33.80
2019-04-25T19:34:19.116Z,33.40
2019-04-25T19:36:49.532Z,33.30
2019-04-25T19:39:21.187Z,33.90
2019-04-25T19:42:09.198Z,34.10
2019-04-25T19:44:40.031Z,33.70
2019-04-25T19:47:11.412Z,33.70
2019-04-25T19:49:42.018Z,33.50
2019-04-25T19:52:13.124Z,33.40
2019-04-25T19:54:43.349Z,33.20
2019-04-25T19:57:13.825Z,33.00
2019-04-25T19:59:44.698Z,32.80
2019-04-25T20:02:26.302Z,33.30
2019-04-25T20:05:17.486Z,32.60
2019-04-25T20:07:55.918Z,33.40
2019-04-25T20:10:46.850Z,32.90
2019-04-25T20:13:17.279Z,32.60
2019-04-25T20:15:47.645Z,32.90
2019-04-25T20:18:17.879Z,32.70
2019-04-25T20:20:48.152Z,32.70
2019-04-25T20:23:18.335Z,33.20
2019-04-25T20:25:48.756Z,32.30
2019-04-25T20:28:19.015Z,32.30
2019-04-25T20:30:49.204Z,32.70
2019-04-25T20:33:19.478Z,33.40
2019-04-25T20:35:49.689Z,32.60
2019-04-25T20:38:19.921Z,32.80
2019-04-25T20:40:50.243Z,33.30
2019-04-25T20:43:20.671Z,33.10
2019-04-25T20:45:50.912Z,33.30
2019-04-25T20:48:21.257Z,33.10
2019-04-25T20:50:52.424Z,33.50
2019-04-25T20:53:22.785Z,33.80
2019-04-25T20:55:52.975Z,33.40
2019-04-25T20:58:23.436Z,33.80
2019-04-25T21:00:56.242Z,34.00
2019-04-25T21:03:26.556Z,33.50
2019-04-25T21:06:05.018Z,33.60
2019-04-25T21:08:35.480Z,33.60
2019-04-25T21:11:05.851Z,34.00
2019-04-25T21:13:59.147Z,33.40
2019-04-25T21:16:50.409Z,33.60
2019-04-25T21:19:25.761Z,34.30
2019-04-25T21:21:56.577Z,34.10
2019-04-25T21:24:27.029Z,34.50
2019-04-25T21:26:57.325Z,34.60
2019-04-25T21:29:27.694Z,34.10
2019-04-25T21:31:58.842Z,35.30
2019-04-25T21:34:30.821Z,34.40
2019-04-25T21:37:01.791Z,34.90
2019-04-25T21:39:58.354Z,35.40
2019-04-25T21:42:32.759Z,34.80
2019-04-25T21:45:03.539Z,33.90
2019-04-25T21:47:33.774Z,36.00
2019-04-25T21:50:05.282Z,35.30
2019-04-25T21:52:35.938Z,34.80
2019-04-25T21:55:07.219Z,33.70
2019-04-25T21:57:37.683Z,37.80
2019-04-25T22:00:11.455Z,35.10
2019-04-25T22:02:42.151Z,35.80
2019-04-25T22:05:13.002Z,40.20
2019-04-25T22:07:43.801Z,42.00
2019-04-25T22:10:14.987Z,43.20
2019-04-25T22:12:45.358Z,45.60
2019-04-25T22:15:16.371Z,46.20
2019-04-25T22:17:46.736Z,47.10
2019-04-25T22:20:17.066Z,42.40
2019-04-25T22:22:47.301Z,45.00
2019-04-25T22:25:17.565Z,44.30
2019-04-25T22:27:48.749Z,47.60
2019-04-25T22:30:20.274Z,44.00
2019-04-25T22:33:11.090Z,45.20
2019-04-25T22:35:50.968Z,51.50
2019-04-25T22:38:21.482Z,44.50
2019-04-25T22:40:51.713Z,42.70
2019-04-25T22:43:21.740Z,43.50
2019-04-25T22:45:52.403Z,49.30
2019-04-25T22:48:26.183Z,47.40
2019-04-25T22:50:56.690Z,45.30
2019-04-25T22:53:27.100Z,44.10
2019-04-25T22:55:57.787Z,46.30
2019-04-25T22:58:28.076Z,45.20
2019-04-25T23:00:58.932Z,44.60
2019-04-25T23:03:36.544Z,44.10
2019-04-25T23:06:07.529Z,43.00
2019-04-25T23:08:38.058Z,42.20
2019-04-25T23:11:08.522Z,42.90
2019-04-25T23:13:38.827Z,45.10
2019-04-25T23:16:09.460Z,43.40
2019-04-25T23:18:39.786Z,43.90
2019-04-25T23:21:10.443Z,42.80
2019-04-25T23:23:40.730Z,45.90
2019-04-25T23:26:30.054Z,41.80
2019-04-25T23:29:01.168Z,42.30
2019-04-25T23:31:32.884Z,41.40
2019-04-25T23:34:04.500Z,40.90
2019-04-25T23:36:35.554Z,40.90
2019-04-25T23:39:09.662Z,41.60
2019-04-25T23:41:40.190Z,43.50
2019-04-25T23:44:10.518Z,42.00
2019-04-25T23:46:40.998Z,40.50
2019-04-25T23:49:11.410Z,40.80
2019-04-25T23:51:41.614Z,41.90
2019-04-25T23:54:11.774Z,40.70
2019-04-25T23:56:42.067Z,42.90
2019-04-25T23:59:13.516Z,41.80
